Link3 Technologies Limited Speed Test Log

Averages  Max Speed    
1 to 25 of 45045** for Host Link3 Technologies
Time
  
    Size    Speed   User ConnectID    
6/25/19 3:41:14 am BD 3.8 MB 1.94 Mbps 242 kB/s248951462044wVrhHeCHv 
6/25/19 3:40:41 am BD 12.8 MB 8.2 Mbps 1.03 MB/s248951462044qFeHi6djN 
6/25/19 2:56:05 am BD 1.3 MB 2.09 Mbps 261 kB/s24895146204453Wwqt3XR 
6/25/19 2:55:54 am BD 23.4 MB 7.91 Mbps 988 kB/s248951462044o3z4q-loN 
6/25/19 2:41:16 am BD 3.9 MB 2.71 Mbps 339 kB/s248951462044dnjo3-NdG 
6/25/19 2:40:47 am BD 22.4 MB 9.52 Mbps 1.19 MB/s248951462044Oe2-hcuaG 
6/25/19 1:40:26 am BD 2.5 MB 3.49 Mbps 437 kB/s248951462044Aw3H7nfRi 
6/25/19 12:44:28 am BD 1.3 MB 403 kbps 50 kB/s248951462044XAkwn69EO 
6/25/19 12:43:55 am BD 7.3 MB 6.26 Mbps 782 kB/s248951462044ooByKuF_B 
6/24/19 11:44:27 pm BD 912 kB 253 kbps 32 kB/s248951462044lqgwSsKO6 
6/24/19 11:43:52 pm BD 7.4 MB 8.86 Mbps 1.11 MB/s248951462044wGZ23sX3i 
6/24/19 10:44:58 pm BD 3.9 MB 3.79 Mbps 474 kB/s248951462044kOyMYmb7F 
6/24/19 10:44:32 pm BD 96 kB 23 kbps 3 kB/s248951462044lgFbZ3M_i 
6/24/19 9:44:22 pm BD 832 kB 349 kbps 44 kB/s248951462044rLmprIox5 
6/24/19 9:43:55 pm BD 12.9 MB 7.82 Mbps 977 kB/s248951462044VDRtcjCgx 
6/24/19 8:44:04 pm BD 1.1 MB 1 Mbps 125 kB/s248951462044RUfUC9smr 
6/24/19 8:43:49 pm BD 6.4 MB 5.69 Mbps 711 kB/s2489514620448qS6u-tr_ 
6/24/19 7:44:20 pm BD 3.7 MB 3.01 Mbps 377 kB/s248951462044gvv9ifr94 
6/24/19 7:43:52 pm BD 14.3 MB 8.67 Mbps 1.08 MB/s248951462044BuaLzROJr 
6/24/19 6:44:20 pm BD 4.1 MB 2.55 Mbps 319 kB/s248951462044II5OfHD7R 
6/24/19 6:43:51 pm BD 7.6 MB 6.14 Mbps 768 kB/s2489514620443S7oi0Eq2 
6/24/19 6:22:33 pm BD 6.2 MB 13.52 Mbps 1.69 MB/s2489515206433XDR4A0t~ 
6/24/19 6:22:22 pm BD 2.1 MB 1.25 Mbps 157 kB/s248951520643QSKx42x4C 
6/24/19 5:44:18 pm BD 3.2 MB 4.02 Mbps 502 kB/s248951462044M0DEuarVu 
6/24/19 5:43:54 pm BD 15 MB 8.09 Mbps 1.01 MB/s248951462044GWggnY0U1 
  
** Partial Results: The most recent results have been displayed. Results over 50 Mbps are highlighted.
Calculated from graphed results above not entire query.
Displaying Internet Speed Test results for Host Link3 Technologies Limited

Minimum

Min 0.02 Mbps : 0.25 Mbps

Average

Avg 6.3 Mbps : 2.97 Mbps

Maximum

Max 9.52 Mbps : 13.52 Mbps

Minimum

Min: 0.02 Mbps : 0.25 Mbps |

Average

Avg: 6.3 Mbps : 2.97 Mbps |

Maximum

Max: 9.52 Mbps : 13.52 Mbps